BHS3252 MYNN-MYGF
Flight info
| Callsign | BHS3252 |
|---|---|
| Flight time | 0h 26m |
| Altitude | 14000 |
| Route | DCT PEACH BR65V ZFP DCT |
| Aircraft | B737/M-SDE2E3FGHIRWXY/LB1 |
Departure
| Time | 2026-05-06 04:36 |
|---|---|
| Airport | Lynden Pindling International Airport (MYNN) |
Arrival
| Time | 2026-05-06 05:02 |
|---|---|
| Airport | Grand Bahama International Airport (MYGF) |
| Time | Latitude | Longitude | Altitude | Speed | Heading |
|---|---|---|---|---|---|
| 2026-05-06 01:36 | 25.04745 | -77.46596 | 28 ft | 0 kts | 179° |
| 2026-05-06 04:28 | 25.04744 | -77.46596 | 28 ft | 0 kts | 185° |
| 2026-05-06 04:28 | 25.04744 | -77.46609 | 28 ft | 3 kts | 298° |
| 2026-05-06 04:28 | 25.04764 | -77.46642 | 28 ft | 5 kts | 291° |
| 2026-05-06 04:28 | 25.04754 | -77.46686 | 28 ft | 7 kts | 237° |
| 2026-05-06 04:29 | 25.04714 | -77.46735 | 28 ft | 9 kts | 236° |
| 2026-05-06 04:29 | 25.04722 | -77.46795 | 28 ft | 7 kts | 311° |
| 2026-05-06 04:29 | 25.04760 | -77.46839 | 28 ft | 9 kts | 316° |
| 2026-05-06 04:29 | 25.04828 | -77.46914 | 28 ft | 18 kts | 314° |
| 2026-05-06 04:30 | 25.04917 | -77.47013 | 28 ft | 17 kts | 315° |
| 2026-05-06 04:30 | 25.04997 | -77.47101 | 28 ft | 15 kts | 315° |
| 2026-05-06 04:30 | 25.05067 | -77.47181 | 28 ft | 13 kts | 314° |
| 2026-05-06 04:30 | 25.05131 | -77.47255 | 28 ft | 12 kts | 314° |
| 2026-05-06 04:31 | 25.05190 | -77.47320 | 28 ft | 11 kts | 310° |
| 2026-05-06 04:31 | 25.05220 | -77.47394 | 27 ft | 10 kts | 273° |
| 2026-05-06 04:31 | 25.05218 | -77.47424 | 27 ft | 0 kts | 259° |
| 2026-05-06 04:32 | 25.05214 | -77.47446 | 27 ft | 3 kts | 258° |
| 2026-05-06 04:32 | 25.05212 | -77.47452 | 27 ft | 0 kts | 252° |
| 2026-05-06 04:34 | 25.05212 | -77.47453 | 27 ft | 0 kts | 252° |
| 2026-05-06 04:35 | 25.05197 | -77.47500 | 27 ft | 12 kts | 246° |
| 2026-05-06 04:35 | 25.05146 | -77.47525 | 27 ft | 8 kts | 144° |
| 2026-05-06 04:35 | 25.05078 | -77.47453 | 27 ft | 24 kts | 136° |
| 2026-05-06 04:35 | 25.04780 | -77.47120 | 29 ft | 99 kts | 135° |
| 2026-05-06 04:36 | 25.04133 | -77.46403 | 52 ft | 160 kts | 136° |
| 2026-05-06 04:36 | 25.03322 | -77.45489 | 597 ft | 175 kts | 131° |
| 2026-05-06 04:36 | 25.02806 | -77.44269 | 1339 ft | 182 kts | 98° |
| 2026-05-06 04:36 | 25.02969 | -77.42933 | 2203 ft | 180 kts | 70° |
| 2026-05-06 04:37 | 25.03566 | -77.41694 | 2826 ft | 193 kts | 55° |
| 2026-05-06 04:37 | 25.04515 | -77.40612 | 3468 ft | 203 kts | 32° |
| 2026-05-06 04:37 | 25.05869 | -77.40299 | 4128 ft | 208 kts | 348° |
| 2026-05-06 04:37 | 25.07065 | -77.41136 | 4815 ft | 210 kts | 306° |
| 2026-05-06 04:38 | 25.07805 | -77.42522 | 5503 ft | 216 kts | 300° |
| 2026-05-06 04:38 | 25.08826 | -77.43747 | 6149 ft | 226 kts | 324° |
| 2026-05-06 04:38 | 25.10129 | -77.44806 | 6820 ft | 239 kts | 317° |
| 2026-05-06 04:38 | 25.11368 | -77.46094 | 7507 ft | 254 kts | 316° |
| 2026-05-06 04:39 | 25.12712 | -77.47443 | 8188 ft | 272 kts | 317° |
| 2026-05-06 04:39 | 25.14168 | -77.48879 | 8870 ft | 291 kts | 317° |
| 2026-05-06 04:39 | 25.15727 | -77.50418 | 9553 ft | 310 kts | 317° |
| 2026-05-06 04:39 | 25.17368 | -77.52035 | 10230 ft | 328 kts | 317° |
| 2026-05-06 04:40 | 25.19124 | -77.53765 | 10914 ft | 346 kts | 317° |
| 2026-05-06 04:40 | 25.20957 | -77.55571 | 11591 ft | 362 kts | 317° |
| 2026-05-06 04:40 | 25.22856 | -77.57443 | 12262 ft | 377 kts | 317° |
| 2026-05-06 04:40 | 25.24848 | -77.59405 | 12938 ft | 391 kts | 317° |
| 2026-05-06 04:41 | 25.26872 | -77.61401 | 13594 ft | 394 kts | 317° |
| 2026-05-06 04:41 | 25.28942 | -77.63443 | 13844 ft | 399 kts | 317° |
| 2026-05-06 04:41 | 25.30979 | -77.65453 | 13908 ft | 394 kts | 317° |
| 2026-05-06 04:41 | 25.33023 | -77.67471 | 14011 ft | 397 kts | 317° |
| 2026-05-06 04:42 | 25.35119 | -77.69544 | 13932 ft | 407 kts | 318° |
| 2026-05-06 04:42 | 25.37210 | -77.71612 | 13928 ft | 408 kts | 318° |
| 2026-05-06 04:42 | 25.39319 | -77.73696 | 13926 ft | 409 kts | 318° |
| 2026-05-06 04:42 | 25.41452 | -77.75806 | 13926 ft | 409 kts | 318° |
| 2026-05-06 04:43 | 25.43598 | -77.77870 | 13926 ft | 409 kts | 321° |
| 2026-05-06 04:43 | 25.45877 | -77.79744 | 13927 ft | 409 kts | 324° |
| 2026-05-06 04:43 | 25.48197 | -77.81576 | 13926 ft | 409 kts | 324° |
| 2026-05-06 04:43 | 25.50472 | -77.83412 | 13926 ft | 409 kts | 323° |
| 2026-05-06 04:44 | 25.52787 | -77.85294 | 13926 ft | 409 kts | 323° |
| 2026-05-06 04:44 | 25.55066 | -77.87144 | 13926 ft | 409 kts | 323° |
| 2026-05-06 04:44 | 25.57361 | -77.89008 | 13926 ft | 409 kts | 323° |
| 2026-05-06 04:44 | 25.59623 | -77.90849 | 13926 ft | 409 kts | 323° |
| 2026-05-06 04:45 | 25.61915 | -77.92716 | 13926 ft | 409 kts | 323° |
| 2026-05-06 04:45 | 25.64214 | -77.94590 | 13926 ft | 409 kts | 323° |
| 2026-05-06 04:45 | 25.66512 | -77.96463 | 13926 ft | 409 kts | 323° |
| 2026-05-06 04:45 | 25.68800 | -77.98330 | 13926 ft | 409 kts | 323° |
| 2026-05-06 04:46 | 25.71066 | -78.00179 | 13926 ft | 409 kts | 323° |
| 2026-05-06 04:46 | 25.73353 | -78.02047 | 13926 ft | 409 kts | 323° |
| 2026-05-06 04:46 | 25.75656 | -78.03929 | 13926 ft | 409 kts | 323° |
| 2026-05-06 04:46 | 25.77942 | -78.05798 | 13926 ft | 409 kts | 323° |
| 2026-05-06 04:47 | 25.80221 | -78.07662 | 13926 ft | 409 kts | 323° |
| 2026-05-06 04:47 | 25.82495 | -78.09523 | 13926 ft | 409 kts | 323° |
| 2026-05-06 04:47 | 25.84796 | -78.11407 | 13926 ft | 409 kts | 323° |
| 2026-05-06 04:47 | 25.87058 | -78.13260 | 13924 ft | 403 kts | 323° |
| 2026-05-06 04:48 | 25.89260 | -78.15064 | 13926 ft | 387 kts | 323° |
| 2026-05-06 04:48 | 25.91382 | -78.16805 | 13926 ft | 367 kts | 323° |
| 2026-05-06 04:48 | 25.93386 | -78.18449 | 13655 ft | 358 kts | 323° |
| 2026-05-06 04:48 | 25.95395 | -78.20097 | 13320 ft | 354 kts | 323° |
| 2026-05-06 04:49 | 25.97362 | -78.21712 | 12998 ft | 353 kts | 323° |
| 2026-05-06 04:49 | 25.99324 | -78.23324 | 12669 ft | 346 kts | 323° |
| 2026-05-06 04:49 | 26.01235 | -78.24894 | 12344 ft | 339 kts | 323° |
| 2026-05-06 04:49 | 26.03090 | -78.26419 | 12022 ft | 333 kts | 323° |
| 2026-05-06 04:50 | 26.04941 | -78.27941 | 11695 ft | 326 kts | 323° |
| 2026-05-06 04:50 | 26.06740 | -78.29421 | 11371 ft | 321 kts | 323° |
| 2026-05-06 04:50 | 26.08509 | -78.30877 | 11047 ft | 316 kts | 323° |
| 2026-05-06 04:50 | 26.10267 | -78.32325 | 10721 ft | 313 kts | 323° |
| 2026-05-06 04:51 | 26.12016 | -78.33765 | 10396 ft | 312 kts | 323° |
| 2026-05-06 04:51 | 26.13624 | -78.35368 | 10072 ft | 311 kts | 314° |
| 2026-05-06 04:51 | 26.15093 | -78.37101 | 9737 ft | 300 kts | 314° |
| 2026-05-06 04:51 | 26.16500 | -78.38723 | 9411 ft | 283 kts | 314° |
| 2026-05-06 04:52 | 26.17856 | -78.40279 | 9095 ft | 281 kts | 314° |
| 2026-05-06 04:52 | 26.19219 | -78.41852 | 8766 ft | 278 kts | 314° |
| 2026-05-06 04:52 | 26.20540 | -78.43374 | 8445 ft | 276 kts | 314° |
| 2026-05-06 04:52 | 26.21873 | -78.44913 | 8119 ft | 275 kts | 314° |
| 2026-05-06 04:53 | 26.23192 | -78.46434 | 7795 ft | 273 kts | 314° |
| 2026-05-06 04:53 | 26.24514 | -78.47961 | 7468 ft | 272 kts | 314° |
| 2026-05-06 04:53 | 26.25830 | -78.49480 | 7142 ft | 271 kts | 314° |
| 2026-05-06 04:53 | 26.27119 | -78.50970 | 6821 ft | 270 kts | 314° |
| 2026-05-06 04:54 | 26.28398 | -78.52447 | 6491 ft | 261 kts | 314° |
| 2026-05-06 04:54 | 26.29658 | -78.53906 | 6166 ft | 260 kts | 314° |
| 2026-05-06 04:54 | 26.30899 | -78.55341 | 5844 ft | 259 kts | 314° |
| 2026-05-06 04:54 | 26.32152 | -78.56790 | 5517 ft | 258 kts | 314° |
| 2026-05-06 04:55 | 26.33387 | -78.58220 | 5193 ft | 257 kts | 314° |
| 2026-05-06 04:55 | 26.34620 | -78.59647 | 4868 ft | 256 kts | 314° |
| 2026-05-06 04:55 | 26.35844 | -78.61065 | 4545 ft | 255 kts | 314° |
| 2026-05-06 04:55 | 26.37061 | -78.62474 | 4223 ft | 246 kts | 314° |
| 2026-05-06 04:56 | 26.38224 | -78.63822 | 3958 ft | 232 kts | 314° |
| 2026-05-06 04:56 | 26.39325 | -78.65099 | 3695 ft | 230 kts | 314° |
| 2026-05-06 04:56 | 26.40437 | -78.66388 | 3429 ft | 228 kts | 314° |
| 2026-05-06 04:56 | 26.41507 | -78.67628 | 3258 ft | 216 kts | 314° |
| 2026-05-06 04:57 | 26.42519 | -78.68803 | 3074 ft | 204 kts | 314° |
| 2026-05-06 04:57 | 26.43475 | -78.69913 | 2904 ft | 192 kts | 314° |
| 2026-05-06 04:57 | 26.44376 | -78.70958 | 2719 ft | 180 kts | 314° |
| 2026-05-06 04:57 | 26.45217 | -78.71935 | 2520 ft | 170 kts | 314° |
| 2026-05-06 04:58 | 26.46028 | -78.72877 | 2336 ft | 169 kts | 314° |
| 2026-05-06 04:58 | 26.46834 | -78.73813 | 2136 ft | 161 kts | 314° |
| 2026-05-06 04:58 | 26.47594 | -78.74696 | 1843 ft | 159 kts | 314° |
| 2026-05-06 04:58 | 26.48362 | -78.75588 | 1479 ft | 160 kts | 314° |
| 2026-05-06 04:59 | 26.49112 | -78.76459 | 1238 ft | 153 kts | 314° |
| 2026-05-06 04:59 | 26.49836 | -78.77302 | 997 ft | 147 kts | 314° |
| 2026-05-06 04:59 | 26.50613 | -78.77975 | 765 ft | 138 kts | 345° |
| 2026-05-06 04:59 | 26.51508 | -78.77835 | 838 ft | 135 kts | 27° |
| 2026-05-06 05:00 | 26.52150 | -78.77079 | 798 ft | 135 kts | 67° |
| 2026-05-06 05:00 | 26.52534 | -78.76118 | 818 ft | 135 kts | 57° |
| 2026-05-06 05:00 | 26.53026 | -78.75235 | 829 ft | 134 kts | 60° |
| 2026-05-06 05:00 | 26.53494 | -78.74312 | 766 ft | 137 kts | 60° |
| 2026-05-06 05:01 | 26.53943 | -78.73408 | 449 ft | 131 kts | 61° |
| 2026-05-06 05:01 | 26.54383 | -78.72518 | 280 ft | 130 kts | 60° |
| 2026-05-06 05:01 | 26.54824 | -78.71646 | 153 ft | 128 kts | 60° |
| 2026-05-06 05:01 | 26.55256 | -78.70784 | 22 ft | 127 kts | 60° |
| 2026-05-06 05:02 | 26.55650 | -78.69992 | 15 ft | 106 kts | 60° |
| 2026-05-06 05:02 | 26.55946 | -78.69398 | 15 ft | 54 kts | 59° |
| 2026-05-06 05:02 | 26.56024 | -78.69243 | 15 ft | 6 kts | 137° |
| 2026-05-06 05:02 | 26.55998 | -78.69273 | 15 ft | 7 kts | 246° |
| 2026-05-06 05:03 | 26.55953 | -78.69372 | 15 ft | 20 kts | 228° |
| 2026-05-06 05:03 | 26.55827 | -78.69427 | 15 ft | 18 kts | 198° |
| 2026-05-06 05:03 | 26.55729 | -78.69502 | 15 ft | 17 kts | 221° |
| 2026-05-06 05:03 | 26.55605 | -78.69626 | 15 ft | 31 kts | 221° |
| 2026-05-06 05:04 | 26.55415 | -78.69808 | 15 ft | 37 kts | 221° |
| 2026-05-06 05:04 | 26.55252 | -78.69968 | 15 ft | 27 kts | 221° |
| 2026-05-06 05:04 | 26.55115 | -78.70101 | 15 ft | 25 kts | 220° |
| 2026-05-06 05:04 | 26.54991 | -78.70219 | 15 ft | 18 kts | 220° |
| 2026-05-06 05:05 | 26.54922 | -78.70213 | 15 ft | 11 kts | 98° |
| 2026-05-06 05:05 | 26.54919 | -78.70115 | 15 ft | 16 kts | 91° |
| 2026-05-06 05:05 | 26.54915 | -78.69978 | 15 ft | 17 kts | 91° |
| 2026-05-06 05:05 | 26.54912 | -78.69852 | 15 ft | 15 kts | 90° |
| 2026-05-06 05:06 | 26.54910 | -78.69737 | 15 ft | 13 kts | 92° |
| 2026-05-06 05:06 | 26.54907 | -78.69636 | 15 ft | 12 kts | 98° |
| 2026-05-06 05:06 | 26.54879 | -78.69609 | 15 ft | 4 kts | 184° |
| 2026-05-06 05:06 | 26.54865 | -78.69626 | 15 ft | 2 kts | 268° |
| 2026-05-06 05:07 | 26.54865 | -78.69630 | 15 ft | 0 kts | 269° |